createdAt,value
2019-05-25T00:00:37.526Z,2.40
2019-05-25T00:01:35.399Z,2.40
2019-05-25T00:02:35.462Z,2.00
2019-05-25T00:03:35.378Z,2.00
2019-05-25T00:04:35.398Z,2.40
2019-05-25T00:05:35.353Z,2.10
2019-05-25T00:06:35.417Z,2.30
2019-05-25T00:07:35.335Z,2.40
2019-05-25T00:08:35.354Z,2.10
2019-05-25T00:09:35.310Z,2.10
2019-05-25T00:10:35.337Z,2.40
2019-05-25T00:11:35.291Z,2.20
2019-05-25T00:12:35.351Z,2.40
2019-05-25T00:13:35.282Z,2.10
2019-05-25T00:14:35.363Z,2.20
2019-05-25T00:15:35.251Z,2.60
2019-05-25T00:16:35.276Z,2.20
2019-05-25T00:17:35.219Z,2.10
2019-05-25T00:18:35.317Z,1.90
2019-05-25T00:19:35.198Z,2.10
2019-05-25T00:20:35.202Z,1.90
2019-05-25T00:21:35.181Z,2.20
2019-05-25T00:22:35.220Z,2.20
2019-05-25T00:23:35.170Z,2.00
2019-05-25T00:24:35.227Z,2.20
2019-05-25T00:25:35.132Z,2.00
2019-05-25T00:26:35.136Z,2.30
2019-05-25T00:27:35.108Z,2.00
2019-05-25T00:28:35.182Z,1.80
2019-05-25T00:29:35.085Z,2.20
2019-05-25T00:30:35.172Z,2.10
2019-05-25T00:31:35.067Z,2.20
2019-05-25T00:32:35.080Z,1.90
2019-05-25T00:33:35.056Z,2.10
2019-05-25T00:34:35.090Z,2.40
2019-05-25T00:35:35.026Z,2.20
2019-05-25T00:36:35.107Z,2.00
2019-05-25T00:37:35.072Z,2.10
2019-05-25T00:38:35.044Z,2.30
2019-05-25T00:39:34.978Z,2.00
2019-05-25T00:40:35.031Z,2.20
2019-05-25T00:41:34.956Z,2.20
2019-05-25T00:42:35.043Z,2.50
2019-05-25T00:43:34.946Z,2.00
2019-05-25T00:44:34.957Z,2.40
2019-05-25T00:45:34.911Z,2.50
2019-05-25T00:46:34.968Z,2.10
2019-05-25T00:47:34.893Z,2.50
2019-05-25T00:48:34.912Z,2.40
2019-05-25T00:49:34.879Z,2.10
2019-05-25T00:50:34.900Z,2.80
2019-05-25T00:51:34.848Z,2.40
2019-05-25T00:52:34.908Z,2.30
2019-05-25T00:53:34.840Z,3.00
2019-05-25T00:54:34.923Z,2.30
2019-05-25T00:55:34.809Z,2.20
2019-05-25T00:56:34.835Z,2.60
2019-05-25T00:57:34.781Z,2.60
2019-05-25T00:58:34.882Z,2.10
2019-05-25T00:59:34.759Z,2.50
2019-05-25T01:00:34.861Z,2.30
2019-05-25T01:01:34.734Z,2.30
2019-05-25T01:02:34.778Z,2.40
2019-05-25T01:03:34.729Z,2.70
2019-05-25T01:04:34.786Z,2.80
2019-05-25T01:05:34.691Z,2.30
2019-05-25T01:06:34.698Z,2.50
2019-05-25T01:07:34.673Z,2.50
2019-05-25T01:08:34.743Z,2.60
2019-05-25T01:09:34.646Z,2.60
2019-05-25T01:10:34.725Z,2.70
2019-05-25T01:11:34.651Z,2.80
2019-05-25T01:12:34.635Z,3.00
2019-05-25T01:13:34.614Z,2.90
2019-05-25T01:14:34.649Z,2.70
2019-05-25T01:15:34.580Z,3.60
2019-05-25T01:16:34.664Z,2.80
2019-05-25T01:17:34.559Z,2.90
2019-05-25T01:18:34.607Z,2.80
2019-05-25T01:19:34.536Z,3.20
2019-05-25T01:20:34.588Z,3.40
2019-05-25T01:21:34.513Z,3.10
2019-05-25T01:22:34.601Z,2.80
2019-05-25T01:23:34.504Z,3.00
2019-05-25T01:24:43.996Z,3.20
2019-05-25T01:25:35.464Z,2.80
2019-05-25T01:26:34.635Z,3.40
2019-05-25T01:27:34.452Z,2.80
2019-05-25T01:28:37.585Z,2.70
2019-05-25T01:29:34.434Z,3.30
2019-05-25T01:30:35.475Z,2.70
2019-05-25T01:31:34.401Z,3.50
2019-05-25T01:32:34.479Z,2.60
2019-05-25T01:33:34.380Z,2.70
2019-05-25T01:34:34.410Z,2.90
2019-05-25T01:35:34.353Z,2.60
2019-05-25T01:36:34.392Z,2.60
2019-05-25T01:37:34.336Z,2.70
2019-05-25T01:38:34.404Z,2.70
2019-05-25T01:39:34.328Z,3.10
2019-05-25T01:40:34.326Z,2.80
2019-05-25T01:41:34.284Z,2.80
2019-05-25T01:42:34.335Z,2.90
2019-05-25T01:43:34.261Z,2.50
2019-05-25T01:44:34.373Z,3.00
2019-05-25T01:45:34.241Z,3.10
2019-05-25T01:46:34.259Z,3.00
2019-05-25T01:47:34.216Z,2.60
2019-05-25T01:48:34.270Z,2.80
2019-05-25T01:49:34.250Z,2.90
2019-05-25T01:50:34.283Z,2.40
2019-05-25T01:51:34.183Z,2.40
2019-05-25T01:52:34.195Z,2.90
2019-05-25T01:53:34.148Z,2.60
2019-05-25T01:54:34.239Z,2.80
2019-05-25T01:55:34.131Z,2.90
2019-05-25T01:56:34.221Z,2.50
2019-05-25T01:57:34.110Z,2.40
2019-05-25T01:58:34.133Z,2.30
2019-05-25T01:59:34.095Z,3.00
2019-05-25T02:00:34.146Z,2.70
2019-05-25T02:01:34.065Z,2.50
2019-05-25T02:02:34.159Z,2.90
2019-05-25T02:03:34.050Z,2.70
2019-05-25T02:04:34.105Z,2.50
2019-05-25T02:05:34.014Z,2.50
2019-05-25T02:06:34.089Z,2.70
2019-05-25T02:07:33.992Z,2.50
2019-05-25T02:08:34.000Z,2.70
2019-05-25T02:09:33.989Z,2.20
2019-05-25T02:10:34.010Z,2.50
2019-05-25T02:11:33.958Z,2.40
2019-05-25T02:12:34.024Z,2.80
2019-05-25T02:13:33.927Z,2.60
2019-05-25T02:14:33.938Z,2.70
2019-05-25T02:15:33.901Z,2.30
2019-05-25T02:16:33.954Z,2.20
2019-05-25T02:17:33.877Z,2.50
2019-05-25T02:18:33.967Z,2.30
2019-05-25T02:19:33.868Z,2.60
2019-05-25T02:20:33.876Z,2.40
2019-05-25T02:21:33.867Z,2.40
2019-05-25T02:22:33.892Z,2.50
2019-05-25T02:23:33.812Z,2.30
2019-05-25T02:24:33.836Z,2.80
2019-05-25T02:25:33.793Z,2.70
2019-05-25T02:26:33.815Z,2.60
2019-05-25T02:27:33.765Z,2.70
2019-05-25T02:28:33.831Z,2.90
2019-05-25T02:29:33.759Z,2.40
2019-05-25T02:30:33.845Z,2.90
2019-05-25T02:31:33.718Z,2.70
2019-05-25T02:32:33.759Z,2.00
2019-05-25T02:33:33.703Z,2.30
2019-05-25T02:34:33.796Z,2.30
2019-05-25T02:35:33.730Z,2.50
2019-05-25T02:36:33.678Z,2.40
2019-05-25T02:37:33.651Z,2.30
2019-05-25T02:38:33.692Z,2.10
2019-05-25T02:39:33.643Z,2.40
2019-05-25T02:40:33.706Z,2.40
2019-05-25T02:41:33.607Z,2.40
2019-05-25T02:42:33.617Z,2.70
2019-05-25T02:43:33.580Z,3.00
2019-05-25T02:44:33.663Z,2.40
2019-05-25T02:45:33.559Z,2.20
2019-05-25T02:46:33.645Z,3.00
2019-05-25T02:47:33.581Z,2.30
2019-05-25T02:48:33.555Z,2.20
2019-05-25T02:49:33.527Z,2.40
2019-05-25T02:50:33.570Z,2.50
2019-05-25T02:51:33.498Z,2.30
2019-05-25T02:52:33.583Z,2.40
2019-05-25T02:53:33.472Z,2.40
2019-05-25T02:54:33.514Z,2.30
2019-05-25T02:55:34.948Z,2.30
2019-05-25T02:56:33.537Z,2.40
2019-05-25T02:57:33.439Z,2.00
2019-05-25T02:58:33.523Z,2.10
2019-05-25T02:59:33.406Z,2.80
2019-05-25T03:00:33.470Z,2.50
2019-05-25T03:01:33.379Z,2.00
2019-05-25T03:02:33.450Z,2.40
2019-05-25T03:03:33.357Z,2.30
2019-05-25T03:04:33.461Z,2.20
2019-05-25T03:05:33.354Z,2.60
2019-05-25T03:06:33.374Z,2.30
2019-05-25T03:07:33.316Z,2.00
2019-05-25T03:08:33.387Z,1.90
2019-05-25T03:09:33.298Z,2.00
2019-05-25T03:10:33.329Z,2.20
2019-05-25T03:11:33.272Z,2.10
2019-05-25T03:12:33.310Z,2.90
2019-05-25T03:13:33.260Z,2.10
2019-05-25T03:14:33.324Z,2.10
2019-05-25T03:15:33.240Z,2.30
2019-05-25T03:16:33.252Z,2.10
2019-05-25T03:17:33.234Z,2.30
2019-05-25T03:18:33.250Z,2.30
2019-05-25T03:19:33.180Z,2.50
2019-05-25T03:20:33.295Z,2.20
2019-05-25T03:21:33.156Z,2.30
2019-05-25T03:22:33.181Z,2.60
2019-05-25T03:23:33.136Z,2.10
2019-05-25T03:24:33.189Z,2.20
2019-05-25T03:25:48.268Z,2.00
2019-05-25T03:26:34.108Z,2.40
2019-05-25T03:27:33.107Z,2.60
2019-05-25T03:28:33.080Z,2.00
2019-05-25T03:29:33.126Z,2.30
2019-05-25T03:30:33.083Z,1.80
2019-05-25T03:31:33.135Z,2.30
2019-05-25T03:32:33.038Z,1.80
2019-05-25T03:33:33.049Z,2.30
2019-05-25T03:34:33.022Z,2.30
2019-05-25T03:35:33.098Z,2.40
2019-05-25T03:36:33.016Z,2.10
2019-05-25T03:37:33.084Z,2.20
2019-05-25T03:38:32.976Z,2.10
2019-05-25T03:39:32.989Z,1.80
2019-05-25T03:40:32.966Z,2.20
2019-05-25T03:41:32.999Z,2.60
2019-05-25T03:42:32.927Z,2.40
2019-05-25T03:43:33.013Z,2.20
2019-05-25T03:44:32.938Z,2.30
2019-05-25T03:45:32.954Z,2.40
2019-05-25T03:46:32.885Z,2.10
2019-05-25T03:47:32.937Z,3.00
2019-05-25T03:48:32.861Z,2.00
2019-05-25T03:49:32.952Z,2.70
2019-05-25T03:50:32.855Z,2.50
2019-05-25T03:51:32.861Z,2.40
2019-05-25T03:52:32.817Z,2.30
2019-05-25T03:53:32.880Z,2.20
2019-05-25T03:54:32.801Z,2.10
2019-05-25T03:55:32.820Z,2.00
2019-05-25T03:56:32.780Z,2.00
2019-05-25T03:57:32.801Z,2.70
2019-05-25T03:58:32.754Z,2.70
2019-05-25T03:59:32.815Z,2.40
2019-05-25T04:00:32.750Z,1.90
2019-05-25T04:01:33.753Z,2.00
2019-05-25T04:02:32.710Z,2.30
2019-05-25T04:03:32.743Z,2.50
2019-05-25T04:04:32.687Z,2.30
2019-05-25T04:05:32.783Z,2.20
2019-05-25T04:06:32.667Z,2.30
2019-05-25T04:07:32.662Z,2.20
2019-05-25T04:08:32.643Z,2.30
2019-05-25T04:09:32.679Z,2.70
2019-05-25T04:10:32.635Z,2.20
2019-05-25T04:11:32.691Z,2.10
2019-05-25T04:12:32.602Z,2.00
2019-05-25T04:13:32.602Z,2.20
2019-05-25T04:14:32.576Z,2.20
2019-05-25T04:15:32.651Z,1.90
2019-05-25T04:16:32.555Z,2.20
2019-05-25T04:17:32.637Z,2.10
2019-05-25T04:18:32.540Z,2.30
2019-05-25T04:19:32.545Z,1.80
2019-05-25T04:20:32.539Z,1.90
2019-05-25T04:21:32.560Z,2.20
2019-05-25T04:22:32.487Z,2.10
2019-05-25T04:23:32.570Z,2.20
2019-05-25T04:24:32.468Z,2.20
2019-05-25T04:25:32.514Z,2.10
2019-05-25T04:26:32.443Z,1.90
2019-05-25T04:27:34.549Z,1.80
2019-05-25T04:28:32.421Z,2.00
2019-05-25T04:29:32.517Z,1.70
2019-05-25T04:30:32.413Z,1.70
2019-05-25T04:31:32.420Z,2.30
2019-05-25T04:32:32.383Z,2.00
2019-05-25T04:33:48.920Z,2.00
2019-05-25T04:34:32.361Z,1.90
2019-05-25T04:35:32.382Z,2.00
2019-05-25T04:36:32.337Z,2.10
2019-05-25T04:37:32.359Z,2.20
2019-05-25T04:38:32.307Z,1.40
2019-05-25T04:39:32.398Z,1.80
2019-05-25T04:40:32.310Z,2.00
2019-05-25T04:41:32.387Z,1.50
2019-05-25T04:42:32.262Z,1.60
2019-05-25T04:43:32.309Z,1.40
2019-05-25T04:44:32.241Z,1.60
2019-05-25T04:45:32.343Z,1.90
2019-05-25T04:46:32.216Z,1.60
2019-05-25T04:47:32.226Z,1.80
2019-05-25T04:48:32.193Z,2.00
2019-05-25T04:49:32.236Z,1.50
2019-05-25T04:50:32.197Z,1.40
2019-05-25T04:51:32.251Z,1.40
2019-05-25T04:52:32.151Z,1.30
2019-05-25T04:53:32.162Z,1.40
2019-05-25T04:54:32.128Z,1.60
2019-05-25T04:55:32.273Z,1.70
2019-05-25T04:56:39.441Z,1.50
2019-05-25T04:57:33.092Z,1.40
2019-05-25T04:58:32.202Z,1.30
2019-05-25T04:59:32.140Z,1.60
2019-05-25T05:00:32.112Z,1.60
2019-05-25T05:01:32.060Z,1.60
2019-05-25T05:02:32.135Z,1.40
2019-05-25T05:03:32.024Z,1.80
2019-05-25T05:04:32.041Z,1.60
2019-05-25T05:05:32.001Z,1.60
2019-05-25T05:06:32.079Z,1.90
2019-05-25T05:07:31.978Z,1.60
2019-05-25T05:08:35.509Z,1.50
2019-05-25T05:09:31.964Z,1.70
2019-05-25T05:10:31.977Z,1.90
2019-05-25T05:11:31.948Z,1.30
2019-05-25T05:13:07.934Z,1.40
2019-05-25T05:13:31.912Z,1.90
2019-05-25T05:14:31.902Z,1.10
2019-05-25T05:15:32.927Z,1.50
2019-05-25T05:16:31.899Z,1.40
2019-05-25T05:17:31.921Z,1.50
2019-05-25T05:18:31.856Z,1.50
2019-05-25T05:19:31.936Z,1.70
2019-05-25T05:20:31.839Z,1.40
2019-05-25T05:21:31.905Z,1.70
2019-05-25T05:22:31.815Z,1.30
2019-05-25T05:23:31.861Z,1.30
2019-05-25T05:24:31.831Z,1.50
2019-05-25T05:25:31.869Z,1.70
2019-05-25T05:26:31.784Z,1.90
2019-05-25T05:27:31.785Z,1.60
2019-05-25T05:28:31.746Z,1.20
2019-05-25T05:29:31.796Z,1.60
2019-05-25T05:30:31.725Z,2.00
2019-05-25T05:31:31.838Z,1.40
2019-05-25T05:32:31.703Z,1.40
2019-05-25T05:33:31.719Z,1.30
2019-05-25T05:34:31.683Z,1.60
2019-05-25T05:35:31.734Z,1.40
2019-05-25T05:36:31.671Z,1.50
2019-05-25T05:37:31.756Z,1.20
2019-05-25T05:38:31.642Z,1.30
2019-05-25T05:39:31.659Z,1.10
2019-05-25T05:40:31.613Z,1.30
2019-05-25T05:41:31.704Z,1.40
2019-05-25T05:42:31.598Z,1.40
2019-05-25T05:43:31.686Z,1.30
2019-05-25T05:44:31.575Z,1.40
2019-05-25T05:45:31.599Z,1.60
2019-05-25T05:46:31.582Z,1.20
2019-05-25T05:47:31.613Z,1.30
2019-05-25T05:48:31.525Z,1.20
2019-05-25T05:49:31.629Z,1.70
2019-05-25T05:50:31.504Z,1.30
2019-05-25T05:51:31.537Z,1.20
2019-05-25T05:52:31.493Z,1.40
2019-05-25T05:53:31.549Z,1.60
2019-05-25T05:54:31.464Z,1.60
2019-05-25T05:55:31.566Z,1.30
2019-05-25T05:56:31.436Z,1.20
2019-05-25T05:57:32.532Z,1.30
2019-05-25T05:58:31.413Z,1.60
2019-05-25T05:59:32.516Z,1.30
2019-05-25T06:00:31.414Z,1.40
2019-05-25T06:01:31.405Z,1.30
2019-05-25T06:02:31.383Z,1.30
2019-05-25T06:03:31.424Z,1.80
2019-05-25T06:04:31.346Z,1.40
2019-05-25T06:05:31.430Z,1.40
2019-05-25T06:06:31.325Z,1.20
2019-05-25T06:07:31.378Z,1.30
2019-05-25T06:08:31.302Z,1.20
2019-05-25T06:09:31.356Z,1.30
2019-05-25T06:10:31.295Z,1.50
2019-05-25T06:11:31.369Z,1.10
2019-05-25T06:12:31.280Z,1.20
2019-05-25T06:13:31.283Z,1.30
2019-05-25T06:14:31.235Z,1.20
2019-05-25T06:15:31.294Z,1.20
2019-05-25T06:16:31.213Z,1.60
2019-05-25T06:17:31.356Z,1.20
2019-05-25T06:18:31.194Z,1.10
2019-05-25T06:19:31.217Z,1.40
2019-05-25T06:20:31.167Z,1.40
2019-05-25T06:21:31.229Z,1.30
2019-05-25T06:22:31.156Z,1.20
2019-05-25T06:23:31.243Z,1.50
2019-05-25T06:24:31.122Z,1.20
2019-05-25T06:25:31.284Z,1.50
2019-05-25T06:26:31.100Z,1.50
2019-05-25T06:27:31.199Z,1.10
2019-05-25T06:28:31.079Z,1.20
2019-05-25T06:29:31.183Z,1.10
2019-05-25T06:30:31.053Z,1.30
2019-05-25T06:31:31.098Z,1.40
2019-05-25T06:32:31.048Z,1.50
2019-05-25T06:33:31.108Z,1.30
2019-05-25T06:34:31.012Z,0.90
2019-05-25T06:35:31.017Z,1.10
2019-05-25T06:36:30.989Z,0.80
2019-05-25T06:37:31.072Z,1.00
2019-05-25T06:38:30.964Z,1.30
2019-05-25T06:39:31.073Z,1.20
2019-05-25T06:40:30.942Z,1.10
2019-05-25T06:41:37.918Z,0.90
2019-05-25T06:42:30.935Z,1.10
2019-05-25T06:43:37.931Z,1.00
2019-05-25T06:44:30.903Z,1.20
2019-05-25T06:45:31.913Z,1.30
2019-05-25T06:46:30.879Z,1.10
2019-05-25T06:47:30.933Z,1.00
2019-05-25T06:48:30.851Z,1.20
2019-05-25T06:49:30.908Z,1.20
2019-05-25T06:50:30.830Z,0.80
2019-05-25T06:51:30.922Z,1.30
2019-05-25T06:52:30.823Z,1.40
2019-05-25T06:53:30.838Z,1.40
2019-05-25T06:54:30.796Z,1.30
2019-05-25T06:55:30.848Z,1.10
2019-05-25T06:56:30.764Z,1.20
2019-05-25T06:57:42.571Z,1.30
2019-05-25T06:58:31.738Z,1.80
2019-05-25T06:59:30.772Z,1.30
2019-05-25T07:00:30.724Z,1.60
2019-05-25T07:01:30.788Z,1.50
2019-05-25T07:02:30.712Z,1.00
2019-05-25T07:03:30.697Z,1.20
2019-05-25T07:04:30.672Z,1.10
2019-05-25T07:05:30.712Z,1.00
2019-05-25T07:06:30.649Z,1.30
2019-05-25T07:07:30.759Z,1.30
2019-05-25T07:08:30.628Z,1.10
2019-05-25T07:09:30.638Z,1.00
2019-05-25T07:10:30.603Z,1.20
2019-05-25T07:11:30.648Z,1.60
2019-05-25T07:12:30.602Z,1.00
2019-05-25T07:13:30.688Z,1.20
2019-05-25T07:14:30.558Z,1.20
2019-05-25T07:15:30.579Z,1.10
2019-05-25T07:16:30.539Z,1.10
2019-05-25T07:17:30.591Z,1.20
2019-05-25T07:18:30.529Z,1.10
2019-05-25T07:19:30.604Z,1.30
2019-05-25T07:20:30.496Z,1.20
2019-05-25T07:21:30.518Z,0.80
2019-05-25T07:22:30.469Z,0.90
2019-05-25T07:23:31.585Z,0.90
2019-05-25T07:24:30.448Z,0.90
2019-05-25T07:25:37.504Z,0.90
2019-05-25T07:26:30.423Z,0.70
2019-05-25T07:27:37.518Z,0.90
2019-05-25T07:28:30.414Z,1.10
2019-05-25T07:29:32.438Z,0.90
2019-05-25T07:30:30.396Z,0.80
2019-05-25T07:31:31.414Z,1.10
2019-05-25T07:32:30.359Z,1.10
2019-05-25T07:33:30.423Z,1.00
2019-05-25T07:34:30.335Z,1.10
2019-05-25T07:35:30.404Z,1.00
2019-05-25T07:36:30.312Z,1.00
2019-05-25T07:37:30.320Z,1.10
2019-05-25T07:38:30.307Z,1.00
2019-05-25T07:39:30.339Z,1.40
2019-05-25T07:40:30.268Z,1.00
2019-05-25T07:41:30.401Z,1.00
2019-05-25T07:42:30.254Z,0.70
2019-05-25T07:43:30.282Z,1.00
2019-05-25T07:44:30.224Z,1.00
2019-05-25T07:45:30.273Z,0.90
2019-05-25T07:46:30.201Z,0.90
2019-05-25T07:47:30.289Z,1.00
2019-05-25T07:48:30.191Z,1.20
2019-05-25T07:49:30.190Z,1.10
2019-05-25T07:50:30.157Z,0.90
2019-05-25T07:51:30.209Z,1.40
2019-05-25T07:52:30.134Z,0.70
2019-05-25T07:53:30.254Z,0.80
2019-05-25T07:54:30.115Z,0.80
2019-05-25T07:55:30.131Z,1.50
2019-05-25T07:56:30.093Z,0.90
2019-05-25T07:57:30.171Z,1.30
2019-05-25T07:58:30.081Z,0.90
2019-05-25T07:59:30.161Z,1.00
2019-05-25T08:00:30.054Z,1.00
2019-05-25T08:01:30.067Z,0.90
2019-05-25T08:02:30.026Z,1.10
2019-05-25T08:03:30.112Z,1.40
2019-05-25T08:04:30.004Z,1.20
2019-05-25T08:05:30.101Z,1.20
2019-05-25T08:06:29.980Z,1.10
2019-05-25T08:07:30.007Z,1.20
2019-05-25T08:08:29.975Z,0.90
2019-05-25T08:09:38.930Z,0.90
2019-05-25T08:10:29.934Z,0.80
2019-05-25T08:11:38.964Z,0.80
2019-05-25T08:12:29.914Z,0.90
2019-05-25T08:13:32.948Z,0.90
2019-05-25T08:14:29.890Z,0.70
2019-05-25T08:15:31.905Z,0.70
2019-05-25T08:16:29.869Z,0.80
2019-05-25T08:17:30.897Z,0.70
2019-05-25T08:18:29.863Z,0.60
2019-05-25T08:19:29.890Z,0.60
2019-05-25T08:20:29.826Z,0.70
2019-05-25T08:21:29.903Z,0.70
2019-05-25T08:22:29.804Z,0.50
2019-05-25T08:23:29.846Z,0.90
2019-05-25T08:24:29.781Z,0.60
2019-05-25T08:25:29.828Z,0.80
2019-05-25T08:26:29.757Z,0.60
2019-05-25T08:27:29.843Z,0.40
2019-05-25T08:28:32.682Z,0.60
2019-05-25T08:29:29.749Z,0.70
2019-05-25T08:30:29.710Z,0.70
2019-05-25T08:31:29.762Z,0.60
2019-05-25T08:32:29.696Z,0.90
2019-05-25T08:33:29.705Z,0.80
2019-05-25T08:34:29.672Z,0.70
2019-05-25T08:35:29.686Z,0.60
2019-05-25T08:36:29.946Z,0.60
2019-05-25T08:37:29.703Z,0.80
2019-05-25T08:38:29.621Z,0.80
2019-05-25T08:39:29.644Z,0.50
2019-05-25T08:40:29.609Z,1.00
2019-05-25T08:41:29.626Z,0.60
2019-05-25T08:42:29.576Z,0.80
2019-05-25T08:43:29.646Z,0.80
2019-05-25T08:44:29.575Z,0.70
2019-05-25T08:45:29.655Z,0.60
2019-05-25T08:46:29.531Z,0.90
2019-05-25T08:47:29.564Z,0.70
2019-05-25T08:48:29.507Z,0.70
2019-05-25T08:49:29.614Z,0.70
2019-05-25T08:50:37.599Z,0.80
2019-05-25T08:51:30.483Z,0.90
2019-05-25T08:52:44.575Z,0.60
2019-05-25T08:53:40.692Z,0.80
2019-05-25T08:54:30.459Z,0.70
2019-05-25T08:55:51.535Z,0.80
2019-05-25T08:56:29.423Z,0.80
2019-05-25T08:57:29.409Z,0.80
2019-05-25T08:58:29.436Z,1.10
2019-05-25T08:59:29.404Z,0.70
2019-05-25T09:00:29.449Z,0.70
2019-05-25T09:01:29.362Z,1.00
2019-05-25T09:02:30.385Z,0.70
2019-05-25T09:03:29.341Z,0.50
2019-05-25T09:04:29.408Z,0.70
2019-05-25T09:05:29.323Z,0.70
2019-05-25T09:06:29.387Z,0.50
2019-05-25T09:07:29.300Z,0.60
2019-05-25T09:08:29.300Z,0.80
2019-05-25T09:09:29.292Z,0.50
2019-05-25T09:10:29.314Z,0.60
2019-05-25T09:11:29.251Z,0.70
2019-05-25T09:12:29.359Z,0.60
2019-05-25T09:13:29.228Z,0.50
2019-05-25T09:14:29.268Z,0.60
2019-05-25T09:15:29.210Z,0.60
2019-05-25T09:16:29.259Z,0.30
2019-05-25T09:17:29.184Z,0.50
2019-05-25T09:18:29.266Z,0.60
2019-05-25T09:19:29.179Z,0.40
2019-05-25T09:20:29.177Z,0.60
2019-05-25T09:21:29.145Z,0.50
2019-05-25T09:22:29.193Z,0.70
2019-05-25T09:23:29.119Z,0.40
2019-05-25T09:24:29.138Z,0.30
2019-05-25T09:25:29.099Z,0.60
2019-05-25T09:26:29.118Z,0.70
2019-05-25T09:27:29.075Z,0.60
2019-05-25T09:28:29.128Z,0.50
2019-05-25T09:29:29.064Z,0.60
2019-05-25T09:30:29.145Z,0.70
2019-05-25T09:31:29.028Z,0.50
2019-05-25T09:32:29.057Z,0.60
2019-05-25T09:33:29.006Z,0.70
2019-05-25T09:34:29.120Z,0.70
2019-05-25T09:35:28.987Z,0.60
2019-05-25T09:36:29.089Z,0.60
2019-05-25T09:37:28.961Z,0.60
2019-05-25T09:38:43.945Z,0.40
2019-05-25T09:39:28.954Z,0.80
2019-05-25T09:40:30.962Z,0.40
2019-05-25T09:41:28.917Z,0.70
2019-05-25T09:42:28.920Z,0.50
2019-05-25T09:43:28.896Z,0.50
2019-05-25T09:44:28.964Z,0.60
2019-05-25T09:45:28.872Z,0.50
2019-05-25T09:46:28.957Z,0.70
2019-05-25T09:47:28.849Z,0.60
2019-05-25T09:48:28.861Z,0.50
2019-05-25T09:49:28.845Z,0.50
2019-05-25T09:50:28.907Z,0.70
2019-05-25T09:51:28.807Z,0.60
2019-05-25T09:52:28.888Z,0.50
2019-05-25T09:53:28.784Z,0.50
2019-05-25T09:54:28.827Z,0.60
2019-05-25T09:55:28.763Z,0.60
2019-05-25T09:56:28.808Z,0.60
2019-05-25T09:57:28.746Z,0.70
2019-05-25T09:58:28.826Z,0.60
2019-05-25T09:59:28.735Z,0.90
2019-05-25T10:00:28.741Z,0.80
2019-05-25T10:01:28.698Z,0.70
2019-05-25T10:02:28.747Z,0.80
2019-05-25T10:03:28.673Z,0.50
2019-05-25T10:04:28.792Z,0.60
2019-05-25T10:05:28.650Z,0.80
2019-05-25T10:06:28.685Z,0.70
2019-05-25T10:07:28.630Z,0.70
2019-05-25T10:08:28.699Z,0.50
2019-05-25T10:09:28.604Z,0.60
2019-05-25T10:10:28.631Z,0.60
2019-05-25T10:11:28.588Z,0.70
2019-05-25T10:12:28.618Z,0.60
2019-05-25T10:13:28.566Z,1.60
2019-05-25T10:14:28.627Z,1.40
2019-05-25T10:15:28.575Z,0.80
2019-05-25T10:16:28.645Z,1.00
2019-05-25T10:17:28.521Z,0.90
2019-05-25T10:18:28.554Z,0.60
2019-05-25T10:19:28.496Z,0.80
2019-05-25T10:20:28.602Z,0.90
2019-05-25T10:21:28.473Z,1.00
2019-05-25T10:22:44.455Z,0.50
2019-05-25T10:23:28.449Z,0.80
2019-05-25T10:24:35.453Z,0.80
2019-05-25T10:25:28.446Z,0.70
2019-05-25T10:26:29.526Z,0.70
2019-05-25T10:27:28.410Z,0.90
2019-05-25T10:28:28.423Z,0.50
2019-05-25T10:29:37.132Z,0.60
2019-05-25T10:30:29.389Z,0.80
2019-05-25T10:31:28.439Z,0.50
2019-05-25T10:32:28.349Z,0.70
2019-05-25T10:33:28.454Z,0.70
2019-05-25T10:34:28.326Z,0.80
2019-05-25T10:35:28.399Z,0.90
2019-05-25T10:36:28.304Z,0.70
2019-05-25T10:37:28.374Z,0.70
2019-05-25T10:38:28.285Z,1.20
2019-05-25T10:39:28.286Z,0.90
2019-05-25T10:40:28.277Z,1.40
2019-05-25T10:41:28.308Z,1.10
2019-05-25T10:42:28.243Z,1.00
2019-05-25T10:43:28.352Z,1.00
2019-05-25T10:44:28.219Z,1.00
2019-05-25T10:45:28.262Z,1.10
2019-05-25T10:46:28.208Z,1.50
2019-05-25T10:47:28.240Z,1.50
2019-05-25T10:48:28.171Z,1.60
2019-05-25T10:49:28.254Z,1.40
2019-05-25T10:50:28.163Z,0.90
2019-05-25T10:51:28.173Z,1.00
2019-05-25T10:52:28.126Z,1.20
2019-05-25T10:53:28.177Z,0.90
2019-05-25T10:54:28.107Z,0.80
2019-05-25T10:55:28.122Z,1.10
2019-05-25T10:56:28.086Z,0.80
2019-05-25T10:57:28.101Z,0.70
2019-05-25T10:58:28.063Z,1.00
2019-05-25T10:59:28.121Z,0.80
2019-05-25T11:00:28.060Z,0.80
2019-05-25T11:01:28.163Z,0.70
2019-05-25T11:02:28.014Z,1.10
2019-05-25T11:03:28.043Z,1.10
2019-05-25T11:04:27.993Z,0.80
2019-05-25T11:05:28.087Z,1.00
2019-05-25T11:06:27.970Z,0.90
2019-05-25T11:07:28.068Z,0.90
2019-05-25T11:08:27.948Z,0.80
2019-05-25T11:09:34.554Z,0.90
2019-05-25T11:10:27.941Z,1.00
2019-05-25T11:11:29.939Z,1.20
2019-05-25T11:12:27.906Z,1.30
2019-05-25T11:13:27.908Z,1.30
2019-05-25T11:14:27.879Z,1.50
2019-05-25T11:15:27.950Z,1.10
2019-05-25T11:16:27.867Z,1.10
2019-05-25T11:17:27.943Z,1.20
2019-05-25T11:18:27.838Z,1.00
2019-05-25T11:19:27.855Z,0.90
2019-05-25T11:20:27.835Z,0.80
2019-05-25T11:21:27.860Z,0.90
2019-05-25T11:22:27.801Z,0.80
2019-05-25T11:23:27.877Z,1.10
2019-05-25T11:24:27.828Z,1.20
2019-05-25T11:25:27.814Z,1.20
2019-05-25T11:26:27.747Z,0.90
2019-05-25T11:27:27.796Z,1.30
2019-05-25T11:28:27.736Z,1.30
2019-05-25T11:29:27.810Z,1.00
2019-05-25T11:30:27.727Z,1.10
2019-05-25T11:31:27.727Z,1.00
2019-05-25T11:32:27.680Z,1.10
2019-05-25T11:33:27.734Z,1.10
2019-05-25T11:34:27.655Z,0.90
2019-05-25T11:35:27.748Z,1.30
2019-05-25T11:36:27.651Z,1.80
2019-05-25T11:37:27.663Z,2.00
2019-05-25T11:38:27.615Z,1.60
2019-05-25T11:39:27.677Z,1.30
2019-05-25T11:40:27.592Z,1.20
2019-05-25T11:41:27.620Z,1.60
2019-05-25T11:42:27.568Z,0.80
2019-05-25T11:43:27.600Z,1.40
2019-05-25T11:44:27.553Z,1.20
2019-05-25T11:45:27.615Z,0.80
2019-05-25T11:46:27.539Z,0.90
2019-05-25T11:47:27.631Z,0.70
2019-05-25T11:48:27.570Z,1.00
2019-05-25T11:49:29.586Z,0.80
2019-05-25T11:50:27.479Z,0.90
2019-05-25T11:51:28.502Z,0.80
2019-05-25T11:52:27.461Z,1.10
2019-05-25T11:53:27.461Z,0.80
2019-05-25T11:54:27.439Z,0.80
2019-05-25T11:55:27.477Z,0.70
2019-05-25T11:56:27.425Z,0.90
2019-05-25T11:57:29.437Z,0.80
2019-05-25T11:58:27.397Z,0.70
2019-05-25T11:59:27.403Z,0.80
2019-05-25T12:00:27.367Z,0.90
2019-05-25T12:01:27.448Z,1.10
2019-05-25T12:02:27.358Z,0.90
2019-05-25T12:03:27.427Z,0.90
2019-05-25T12:04:27.332Z,0.70
2019-05-25T12:05:27.339Z,1.00
2019-05-25T12:06:27.319Z,0.70
2019-05-25T12:07:27.352Z,1.50
2019-05-25T12:08:27.285Z,0.90
2019-05-25T12:09:27.368Z,1.00
2019-05-25T12:10:27.272Z,0.80
2019-05-25T12:11:27.310Z,1.00
2019-05-25T12:12:27.245Z,0.80
2019-05-25T12:13:27.297Z,1.10
2019-05-25T12:14:27.217Z,0.80
2019-05-25T12:15:27.305Z,0.80
2019-05-25T12:16:27.213Z,0.70
2019-05-25T12:17:27.222Z,0.80
2019-05-25T12:18:27.173Z,1.10
2019-05-25T12:19:27.230Z,1.00
2019-05-25T12:20:27.155Z,0.80
2019-05-25T12:21:27.173Z,0.80
2019-05-25T12:22:27.130Z,0.70
2019-05-25T12:23:27.157Z,0.70
2019-05-25T12:24:27.112Z,0.90
2019-05-25T12:25:27.173Z,0.70
2019-05-25T12:26:27.106Z,1.00
2019-05-25T12:27:27.188Z,0.90
2019-05-25T12:28:27.063Z,1.00
2019-05-25T12:29:27.096Z,0.80
2019-05-25T12:30:39.783Z,0.80
2019-05-25T12:31:28.045Z,0.80
2019-05-25T12:32:27.115Z,0.80
2019-05-25T12:33:27.016Z,0.80
2019-05-25T12:34:41.979Z,0.70
2019-05-25T12:35:26.988Z,0.70
2019-05-25T12:36:29.016Z,0.60
2019-05-25T12:37:26.968Z,0.60
2019-05-25T12:38:26.966Z,0.70
2019-05-25T12:39:26.947Z,1.10
2019-05-25T12:40:26.970Z,1.10
2019-05-25T12:41:26.940Z,1.00
2019-05-25T12:42:26.985Z,0.70
2019-05-25T12:43:26.905Z,0.70
2019-05-25T12:44:27.928Z,0.70
2019-05-25T12:45:26.889Z,0.80
2019-05-25T12:46:26.969Z,0.90
2019-05-25T12:47:26.906Z,1.00
2019-05-25T12:48:26.925Z,1.20
2019-05-25T12:49:26.840Z,1.00
2019-05-25T12:50:26.937Z,0.90
2019-05-25T12:51:26.851Z,0.80
2019-05-25T12:52:26.844Z,0.90
2019-05-25T12:53:26.803Z,1.10
2019-05-25T12:54:26.910Z,0.80
2019-05-25T12:55:26.772Z,0.80
2019-05-25T12:56:26.873Z,0.70
2019-05-25T12:57:26.772Z,1.00
2019-05-25T12:58:26.787Z,0.70
2019-05-25T12:59:26.728Z,0.70
2019-05-25T13:00:26.820Z,0.80
2019-05-25T13:01:26.710Z,1.20
2019-05-25T13:02:26.741Z,1.40
2019-05-25T13:03:28.403Z,1.10
2019-05-25T13:04:26.723Z,0.70
2019-05-25T13:05:34.200Z,0.60
2019-05-25T13:06:27.658Z,0.90
2019-05-25T13:07:26.772Z,0.70
2019-05-25T13:08:26.628Z,0.60
2019-05-25T13:09:26.655Z,0.80
2019-05-25T13:10:26.610Z,0.60
2019-05-25T13:11:26.669Z,0.70
2019-05-25T13:12:26.601Z,0.80
2019-05-25T13:13:26.683Z,0.60
2019-05-25T13:14:26.564Z,0.50
2019-05-25T13:15:26.592Z,0.60
2019-05-25T13:16:26.541Z,0.80
2019-05-25T13:17:26.635Z,1.00
2019-05-25T13:18:26.519Z,0.70